Time;durP1;ratioP1;P1;durP2;ratioP2;P2;SDS_P1;SDS_P2;PMS_P1;PMS_P2;Temp;Humidity;BMP_temperature;BMP_pressure;BME280_temperature;BME280_humidity;BME280_pressure;Samples;Min_cycle;Max_cycle;Signal;HPM_P1;HPM_P2
2022/08/02 00:01:52;;;;;;;4.10;3.00;;;19.20;70.20;;;;;;4979984;28;20454;-72
2022/08/02 00:04:19;;;;;;;3.70;3.20;;;19.20;70.20;;;;;;4981553;28;20441;-73
2022/08/02 00:06:49;;;;;;;3.40;2.90;;;19.10;70.40;;;;;;4980298;28;20471;-72
2022/08/02 00:09:16;;;;;;;11.02;3.30;;;19.10;70.50;;;;;;4983742;28;20586;-73
2022/08/02 00:11:42;;;;;;;3.47;3.17;;;19.00;70.80;;;;;;4976342;28;20470;-73
2022/08/02 00:14:09;;;;;;;4.90;3.45;;;19.00;71.10;;;;;;4982200;28;20442;-73
2022/08/02 00:16:36;;;;;;;5.07;3.92;;;19.00;71.10;;;;;;4981695;28;20451;-73
2022/08/02 00:19:04;;;;;;;3.40;3.10;;;19.00;71.20;;;;;;4983581;28;20469;-73
2022/08/02 00:21:30;;;;;;;3.50;3.20;;;18.90;71.10;;;;;;4972049;28;20490;-73
2022/08/02 00:23:59;;;;;;;4.00;3.60;;;18.90;71.60;;;;;;4984811;28;20443;-73
2022/08/02 00:26:25;;;;;;;3.60;3.30;;;18.80;71.30;;;;;;4978471;28;20447;-72
2022/08/02 00:28:52;;;;;;;4.60;3.60;;;18.80;71.50;;;;;;4994528;28;20441;-73
2022/08/02 00:31:19;;;;;;;3.63;3.30;;;18.70;72.00;;;;;;4986348;28;20560;-73
2022/08/02 00:33:46;;;;;;;3.88;3.47;;;18.70;72.20;;;;;;4988257;28;20444;-73
2022/08/02 00:36:13;;;;;;;3.50;3.20;;;18.60;72.30;;;;;;4980153;28;20887;-73
2022/08/02 00:38:39;;;;;;;3.58;3.22;;;18.60;72.70;;;;;;4984984;28;20472;-73
2022/08/02 00:41:15;;;;;;;3.85;3.45;;;18.60;73.50;;;;;;4987147;28;20427;-74
2022/08/02 00:43:42;;;;;;;3.90;3.50;;;18.60;72.70;;;;;;4978860;28;20519;-74
2022/08/02 00:46:08;;;;;;;3.40;3.10;;;18.60;73.00;;;;;;4978580;28;20994;-74
2022/08/02 00:48:35;;;;;;;4.15;3.30;;;18.60;73.40;;;;;;4976469;28;20513;-74
2022/08/02 00:51:02;;;;;;;4.07;3.50;;;18.60;73.10;;;;;;4986032;28;20450;-74
2022/08/02 00:53:29;;;;;;;3.30;3.10;;;18.60;73.00;;;;;;4990860;28;20505;-74
2022/08/02 00:55:56;;;;;;;3.65;3.30;;;18.60;72.80;;;;;;4987622;28;20440;-73
2022/08/02 00:58:24;;;;;;;4.78;3.78;;;18.60;73.80;;;;;;4969446;28;20440;-74
2022/08/02 01:00:51;;;;;;;4.30;3.60;;;18.50;73.10;;;;;;4985407;28;20436;-74
2022/08/02 01:03:18;;;;;;;4.47;3.55;;;18.50;73.90;;;;;;4977483;28;20434;-74
2022/08/02 01:05:45;;;;;;;3.90;3.60;;;18.50;73.70;;;;;;4978386;28;20975;-74
2022/08/02 01:08:11;;;;;;;4.20;3.30;;;18.50;73.40;;;;;;4976506;28;20438;-74
2022/08/02 01:10:38;;;;;;;4.50;3.50;;;18.50;73.70;;;;;;4989198;28;20782;-74
2022/08/02 01:13:05;;;;;;;3.72;3.42;;;18.50;74.00;;;;;;4986144;28;20441;-73
2022/08/02 01:15:35;;;;;;;3.80;3.45;;;18.50;74.20;;;;;;4980822;28;20436;-74
2022/08/02 01:18:08;;;;;;;4.00;3.60;;;18.50;74.00;;;;;;4978686;28;20792;-74
2022/08/02 01:20:57;;;;;;;4.45;3.88;;;18.40;73.80;;;;;;4992920;28;20441;-72
2022/08/02 01:23:45;;;;;;;4.55;3.70;;;18.40;73.70;;;;;;4971101;28;21061;-72
2022/08/02 01:26:39;;;;;;;4.63;3.60;;;18.40;74.30;;;;;;4987837;28;20438;-71
2022/08/02 01:29:11;;;;;;;5.05;3.85;;;18.40;74.20;;;;;;4985216;28;20447;-74
2022/08/02 01:31:44;;;;;;;4.40;3.60;;;18.30;74.60;;;;;;4985235;28;20435;-73
2022/08/02 01:34:19;;;;;;;5.37;4.20;;;18.30;74.50;;;;;;4978906;28;20533;-73
2022/08/02 01:36:57;;;;;;;5.60;3.97;;;18.30;74.80;;;;;;4976406;28;20436;-72
2022/08/02 01:39:27;;;;;;;6.20;4.80;;;18.30;74.20;;;;;;4974987;28;20438;-71
2022/08/02 01:41:56;;;;;;;4.30;3.90;;;18.20;74.40;;;;;;4980540;28;20432;-72
2022/08/02 01:44:28;;;;;;;5.60;4.20;;;18.10;74.60;;;;;;4995374;28;20439;-72
2022/08/02 01:46:59;;;;;;;4.80;4.40;;;18.10;75.00;;;;;;4979550;28;20437;-72
2022/08/02 01:49:29;;;;;;;4.88;4.30;;;18.00;75.20;;;;;;4982049;28;20442;-71
2022/08/02 01:54:47;;;;;;;5.75;4.63;;;18.00;75.70;;;;;;4985129;28;20428;-74
2022/08/02 01:57:16;;;;;;;5.18;4.20;;;18.00;76.10;;;;;;4978818;28;20438;-75
2022/08/02 01:59:45;;;;;;;4.45;3.95;;;18.00;76.30;;;;;;4984270;28;20920;-75
2022/08/02 02:02:14;;;;;;;4.20;3.80;;;18.10;76.50;;;;;;4982432;28;20438;-72
2022/08/02 02:04:43;;;;;;;4.63;3.67;;;18.00;76.30;;;;;;4974737;28;20939;-72
2022/08/02 02:07:12;;;;;;;5.07;4.03;;;18.00;76.40;;;;;;4983652;28;20780;-73
2022/08/02 02:09:40;;;;;;;6.60;4.60;;;18.00;77.60;;;;;;4984033;28;20438;-72
2022/08/02 02:12:09;;;;;;;5.50;4.35;;;18.00;76.60;;;;;;4986542;28;20440;-73
2022/08/02 02:14:37;;;;;;;6.33;5.20;;;18.00;75.70;;;;;;4976393;28;20466;-73
2022/08/02 02:17:06;;;;;;;7.60;4.60;;;17.90;76.70;;;;;;4980285;28;20988;-72
2022/08/02 02:19:35;;;;;;;5.65;4.50;;;17.90;77.30;;;;;;4984843;28;20438;-72
2022/08/02 02:22:02;;;;;;;5.28;4.60;;;17.90;76.50;;;;;;4983927;28;20475;-72
2022/08/02 02:27:00;;;;;;;7.15;5.30;;;17.90;76.50;;;;;;5005438;28;20458;-73
2022/08/02 02:29:31;;;;;;;6.00;4.90;;;17.80;76.60;;;;;;5006958;28;20490;-74
2022/08/02 02:32:00;;;;;;;5.82;5.03;;;17.70;76.70;;;;;;5005907;28;20468;-72
2022/08/02 02:34:33;;;;;;;7.20;4.77;;;17.70;77.10;;;;;;5014972;28;20444;-73
2022/08/02 02:37:03;;;;;;;6.45;5.43;;;17.70;77.20;;;;;;4999537;28;20455;-73
2022/08/02 02:39:32;;;;;;;7.20;5.47;;;17.60;77.80;;;;;;5017630;28;20479;-74
2022/08/02 02:42:03;;;;;;;7.88;5.55;;;17.60;77.40;;;;;;5003361;28;20439;-73
2022/08/02 02:44:31;;;;;;;7.10;5.30;;;17.60;77.00;;;;;;5006402;28;20441;-73
2022/08/02 02:46:59;;;;;;;7.95;5.40;;;17.60;77.60;;;;;;5001925;28;20472;-73
2022/08/02 02:49:27;;;;;;;7.75;5.63;;;17.50;77.20;;;;;;5002059;28;20955;-73
2022/08/02 02:51:56;;;;;;;7.50;5.60;;;17.40;77.60;;;;;;5007277;28;20431;-73
2022/08/02 02:54:24;;;;;;;5.88;4.90;;;17.40;77.90;;;;;;5015695;28;20444;-74
2022/08/02 02:56:52;;;;;;;6.20;5.13;;;17.30;78.00;;;;;;5003467;28;20981;-72
2022/08/02 02:59:19;;;;;;;6.40;4.70;;;17.40;78.40;;;;;;5002236;28;20482;-72
2022/08/02 03:01:46;;;;;;;7.03;5.22;;;17.40;78.40;;;;;;5013122;28;20436;-71
2022/08/02 03:04:13;;;;;;;6.40;4.97;;;17.40;79.10;;;;;;5000573;28;20940;-74
2022/08/02 03:06:41;;;;;;;6.35;4.65;;;17.30;79.00;;;;;;5010198;28;20445;-72
2022/08/02 03:09:10;;;;;;;5.15;4.60;;;17.40;79.10;;;;;;5011046;28;20971;-73
2022/08/02 03:11:37;;;;;;;9.00;5.30;;;17.30;79.20;;;;;;5011728;28;20434;-73
2022/08/02 03:14:08;;;;;;;5.50;5.00;;;17.40;80.00;;;;;;5002175;28;20440;-75
2022/08/02 03:16:42;;;;;;;7.70;5.60;;;17.30;80.70;;;;;;5002557;28;20449;-73
2022/08/02 03:19:09;;;;;;;6.40;5.80;;;17.30;81.30;;;;;;5004276;28;20456;-72
2022/08/02 03:21:36;;;;;;;7.50;5.87;;;17.30;81.40;;;;;;5009087;28;20652;-73
2022/08/02 03:24:03;;;;;;;6.90;5.80;;;17.20;82.30;;;;;;5002042;28;20436;-73
2022/08/02 03:26:32;;;;;;;6.20;5.70;;;17.20;82.80;;;;;;5004660;28;20839;-73
2022/08/02 03:28:58;;;;;;;6.23;5.50;;;17.20;83.00;;;;;;5008234;28;20439;-72
2022/08/02 03:31:25;;;;;;;6.40;5.40;;;17.20;83.40;;;;;;5015276;28;20507;-72
2022/08/02 03:33:53;;;;;;;6.57;5.97;;;17.20;83.50;;;;;;5006949;28;20449;-73
2022/08/02 03:36:22;;;;;;;6.03;5.43;;;17.10;84.10;;;;;;5009548;28;20440;-72
2022/08/02 03:38:51;;;;;;;6.63;5.60;;;17.10;84.40;;;;;;5013494;28;20446;-73
2022/08/02 03:41:20;;;;;;;5.90;5.40;;;17.10;84.70;;;;;;5004539;28;20429;-74
2022/08/02 03:43:49;;;;;;;5.50;5.10;;;17.10;84.30;;;;;;5003255;28;20447;-73
2022/08/02 03:46:19;;;;;;;6.78;6.00;;;17.10;84.60;;;;;;5001552;28;20434;-72
2022/08/02 03:48:47;;;;;;;6.28;5.68;;;17.00;84.90;;;;;;5002260;28;20439;-74
2022/08/02 03:51:15;;;;;;;6.50;5.90;;;17.00;84.20;;;;;;5022102;28;20435;-74
2022/08/02 03:53:42;;;;;;;6.30;5.80;;;17.00;84.60;;;;;;5016239;28;20438;-73
2022/08/02 03:56:10;;;;;;;5.70;5.20;;;17.00;84.50;;;;;;5005913;28;20797;-74
2022/08/02 03:58:37;;;;;;;6.22;5.63;;;16.90;84.40;;;;;;5000346;28;20448;-72
2022/08/02 04:01:05;;;;;;;6.40;5.80;;;16.90;84.80;;;;;;5001602;28;20438;-73
2022/08/02 04:03:32;;;;;;;5.75;5.25;;;16.80;84.90;;;;;;5008392;28;20524;-72
2022/08/02 04:05:59;;;;;;;6.35;5.75;;;16.80;85.20;;;;;;4998459;28;20438;-72
2022/08/02 04:08:26;;;;;;;6.53;6.03;;;16.90;85.30;;;;;;4994497;28;20448;-73
2022/08/02 04:13:38;;;;;;;5.93;5.37;;;16.90;85.10;;;;;;4998734;28;20480;-74
2022/08/02 04:16:11;;;;;;;6.68;5.97;;;16.80;85.00;;;;;;4989608;28;20438;-73
2022/08/02 04:18:43;;;;;;;7.50;6.80;;;16.80;85.10;;;;;;4999296;28;20465;-72
2022/08/02 04:21:17;;;;;;;7.40;6.80;;;16.70;85.50;;;;;;4999683;28;20434;-72
2022/08/02 04:23:46;;;;;;;7.77;6.90;;;16.70;85.70;;;;;;5001824;28;20468;-73
2022/08/02 04:26:14;;;;;;;8.30;7.55;;;16.60;86.40;;;;;;5005744;28;20440;-72
2022/08/02 04:28:42;;;;;;;8.55;7.80;;;16.50;86.60;;;;;;5016898;28;20438;-72
2022/08/02 04:31:11;;;;;;;8.88;8.15;;;16.50;86.80;;;;;;5023141;28;20430;-66
2022/08/02 04:33:38;;;;;;;9.77;8.85;;;16.50;87.10;;;;;;5002582;28;20434;-63
2022/08/02 04:36:06;;;;;;;10.48;9.50;;;16.40;87.30;;;;;;5011798;28;20710;-66
2022/08/02 04:38:33;;;;;;;9.10;8.30;;;16.40;87.60;;;;;;5002968;28;20532;-64
2022/08/02 04:41:00;;;;;;;10.02;9.23;;;16.40;87.60;;;;;;5013968;28;20439;-64
2022/08/02 04:43:27;;;;;;;9.50;8.53;;;16.40;87.70;;;;;;5000374;28;21058;-63
2022/08/02 04:45:54;;;;;;;10.53;9.50;;;16.40;87.50;;;;;;5007090;28;20446;-65
2022/08/02 04:48:24;;;;;;;10.27;9.38;;;16.40;87.40;;;;;;5010108;28;20440;-65
2022/08/02 04:50:51;;;;;;;10.48;9.57;;;16.40;87.70;;;;;;5001125;28;20430;-64
2022/08/02 04:53:18;;;;;;;10.60;9.70;;;16.30;87.90;;;;;;4998297;28;20450;-69
2022/08/02 04:55:45;;;;;;;11.40;10.30;;;16.30;88.10;;;;;;5018540;28;20415;-66
2022/08/02 04:58:12;;;;;;;11.18;10.27;;;16.30;88.10;;;;;;5009333;28;20727;-66
2022/08/02 05:00:38;;;;;;;11.60;10.50;;;16.30;89.00;;;;;;4998524;28;20444;-63
2022/08/02 05:03:06;;;;;;;10.73;9.82;;;16.30;88.00;;;;;;5001845;28;20433;-65
2022/08/02 05:05:34;;;;;;;11.20;10.20;;;16.40;87.80;;;;;;4995331;28;20468;-68
2022/08/02 05:08:01;;;;;;;10.70;9.90;;;16.40;88.00;;;;;;4996520;28;20436;-67
2022/08/02 05:10:28;;;;;;;10.55;9.65;;;16.40;87.60;;;;;;4996769;28;20823;-64
2022/08/02 05:12:55;;;;;;;10.00;9.18;;;16.40;87.80;;;;;;5001508;28;20435;-65
2022/08/02 05:15:21;;;;;;;10.20;9.50;;;16.40;88.10;;;;;;5002671;28;20430;-65
2022/08/02 05:17:49;;;;;;;11.18;10.27;;;16.40;88.20;;;;;;5005041;28;20442;-65
2022/08/02 05:20:16;;;;;;;10.20;9.50;;;16.40;87.90;;;;;;5012530;28;20442;-64
2022/08/02 05:22:44;;;;;;;10.40;9.50;;;16.40;87.80;;;;;;4998109;28;20432;-64
2022/08/02 05:25:11;;;;;;;9.93;9.13;;;16.50;87.60;;;;;;5003806;28;20444;-65
2022/08/02 05:27:38;;;;;;;10.45;9.73;;;16.50;87.40;;;;;;5001338;28;20426;-65
2022/08/02 05:30:06;;;;;;;10.45;9.65;;;16.50;87.60;;;;;;5002970;28;20569;-64
2022/08/02 05:32:33;;;;;;;10.00;9.30;;;16.50;87.50;;;;;;4993135;28;20432;-64
2022/08/02 05:35:01;;;;;;;10.63;9.65;;;16.60;87.30;;;;;;5005901;28;20524;-64
2022/08/02 05:37:28;;;;;;;10.60;9.70;;;16.60;87.30;;;;;;5002069;28;20431;-63
2022/08/02 05:39:56;;;;;;;10.60;9.70;;;16.60;87.00;;;;;;5012251;28;20905;-64
2022/08/02 05:42:23;;;;;;;9.90;9.10;;;16.70;87.20;;;;;;5001042;28;20433;-65
2022/08/02 05:44:50;;;;;;;10.20;9.50;;;16.70;87.00;;;;;;5012346;28;20529;-65
2022/08/02 05:47:16;;;;;;;10.40;9.60;;;16.80;87.00;;;;;;5001062;28;20441;-65
2022/08/02 05:49:43;;;;;;;10.60;9.70;;;16.90;86.70;;;;;;5006182;28;20946;-71
2022/08/02 05:52:15;;;;;;;10.18;9.48;;;16.90;86.60;;;;;;5020657;28;20434;-71
2022/08/02 05:54:49;;;;;;;10.07;9.18;;;16.90;86.50;;;;;;5011623;28;20814;-71
2022/08/02 05:57:27;;;;;;;10.30;9.55;;;16.90;86.40;;;;;;5008590;28;20433;-71
2022/08/02 06:00:04;;;;;;;9.02;8.43;;;17.00;86.30;;;;;;4995509;28;20447;-71
2022/08/02 06:02:43;;;;;;;10.05;9.25;;;17.00;86.40;;;;;;5004485;28;20426;-72
2022/08/02 06:05:11;;;;;;;9.20;8.60;;;17.10;85.60;;;;;;4997823;28;20439;-70
2022/08/02 06:07:41;;;;;;;8.95;8.25;;;17.20;85.30;;;;;;4994951;28;20440;-70
2022/08/02 06:10:09;;;;;;;8.85;8.25;;;17.20;84.60;;;;;;5009215;28;20434;-72
2022/08/02 06:12:46;;;;;;;9.15;8.32;;;17.20;84.50;;;;;;5004299;28;20494;-69
2022/08/02 06:15:14;;;;;;;8.70;8.00;;;17.30;83.70;;;;;;4995354;28;20442;-70
2022/08/02 06:17:41;;;;;;;7.97;7.28;;;17.30;83.40;;;;;;5007961;28;20441;-71
2022/08/02 06:20:11;;;;;;;8.47;7.77;;;17.40;83.50;;;;;;5013998;28;20517;-71
2022/08/02 06:22:40;;;;;;;8.40;7.50;;;17.50;83.40;;;;;;5000908;28;20463;-71
2022/08/02 06:25:08;;;;;;;7.70;7.10;;;17.50;82.40;;;;;;5005123;28;20448;-69
2022/08/02 06:27:36;;;;;;;7.77;7.17;;;17.60;82.20;;;;;;5004507;28;21107;-69
2022/08/02 06:30:05;;;;;;;7.75;7.05;;;17.70;81.60;;;;;;5012703;28;20430;-69
2022/08/02 06:32:32;;;;;;;8.10;7.40;;;17.80;81.20;;;;;;4998059;28;20518;-71
2022/08/02 06:34:59;;;;;;;7.53;6.93;;;17.90;80.40;;;;;;4995396;28;20431;-70
2022/08/02 06:37:37;;;;;;;7.65;7.05;;;17.90;80.60;;;;;;4997060;28;20446;-70
2022/08/02 06:40:11;;;;;;;8.10;7.40;;;18.00;80.20;;;;;;4999172;28;20522;-70
2022/08/02 06:42:47;;;;;;;7.40;6.80;;;18.10;80.00;;;;;;5004424;28;20429;-71
2022/08/02 06:45:14;;;;;;;8.18;7.47;;;18.10;80.00;;;;;;5011034;28;20449;-70
2022/08/02 06:47:41;;;;;;;7.10;6.60;;;18.30;79.90;;;;;;5010745;28;20440;-70
2022/08/02 06:50:09;;;;;;;7.60;7.10;;;18.40;80.50;;;;;;5008463;28;20459;-71
2022/08/02 06:52:36;;;;;;;7.30;6.80;;;18.50;79.10;;;;;;4996949;28;20436;-70
2022/08/02 06:55:05;;;;;;;7.70;7.10;;;18.60;78.30;;;;;;5008667;28;20584;-70
2022/08/02 06:57:32;;;;;;;7.47;6.97;;;18.70;77.60;;;;;;5008419;28;20538;-72
2022/08/02 07:00:02;;;;;;;7.30;6.80;;;18.80;77.00;;;;;;5007009;28;20442;-70
2022/08/02 07:02:29;;;;;;;7.45;6.95;;;18.90;76.50;;;;;;5004403;28;20449;-70
2022/08/02 07:04:56;;;;;;;6.95;6.45;;;19.00;76.40;;;;;;5008220;28;20434;-70
2022/08/02 07:07:22;;;;;;;6.95;6.35;;;19.10;75.70;;;;;;5017603;28;20809;-69
2022/08/02 07:09:50;;;;;;;7.07;6.50;;;19.20;74.90;;;;;;5002958;28;20432;-69
2022/08/02 07:12:17;;;;;;;6.85;6.35;;;19.30;74.30;;;;;;4998320;28;20477;-70
2022/08/02 07:14:44;;;;;;;6.40;5.90;;;19.40;74.50;;;;;;4996009;28;20434;-71
2022/08/02 07:17:13;;;;;;;7.70;7.10;;;19.50;74.20;;;;;;5012450;28;20495;-71
2022/08/02 07:19:40;;;;;;;6.10;5.65;;;19.70;73.10;;;;;;5017557;28;20469;-71
2022/08/02 07:22:06;;;;;;;6.20;5.60;;;19.80;72.80;;;;;;5011185;28;20881;-71
2022/08/02 07:24:33;;;;;;;7.18;6.47;;;19.90;72.10;;;;;;5003291;28;20438;-70
2022/08/02 07:27:00;;;;;;;5.80;5.40;;;20.00;71.30;;;;;;5018195;28;20430;-71
2022/08/02 07:29:27;;;;;;;6.10;5.60;;;20.10;71.10;;;;;;5021116;28;20426;-71
2022/08/02 07:31:54;;;;;;;7.70;4.60;;;20.30;71.00;;;;;;5021328;28;20600;-70
2022/08/02 07:34:22;;;;;;;5.73;5.23;;;20.60;70.50;;;;;;5012442;28;20473;-70
2022/08/02 07:36:49;;;;;;;6.53;5.25;;;20.80;68.60;;;;;;5011992;28;20457;-71
2022/08/02 07:39:15;;;;;;;5.22;4.78;;;21.00;67.30;;;;;;5006466;28;20450;-70
2022/08/02 07:41:42;;;;;;;5.10;4.40;;;21.10;67.00;;;;;;5011910;28;20448;-70
2022/08/02 07:44:09;;;;;;;4.93;4.53;;;21.30;66.90;;;;;;5015901;28;20705;-70
2022/08/02 07:46:36;;;;;;;4.80;4.40;;;21.60;65.00;;;;;;5020783;28;20429;-69
2022/08/02 07:49:02;;;;;;;5.53;4.20;;;21.80;65.00;;;;;;5004687;28;20431;-71
2022/08/02 07:51:32;;;;;;;6.85;4.68;;;22.00;63.60;;;;;;4995338;28;20443;-70
2022/08/02 07:53:58;;;;;;;4.38;3.80;;;22.20;63.10;;;;;;5005064;28;20477;-70
2022/08/02 07:56:26;;;;;;;4.80;4.40;;;22.40;62.00;;;;;;5010175;28;20436;-70
2022/08/02 07:58:52;;;;;;;5.78;4.30;;;22.50;61.40;;;;;;5006661;28;20500;-72
2022/08/02 08:01:20;;;;;;;4.63;4.13;;;22.70;60.80;;;;;;5007038;28;20883;-71
2022/08/02 08:03:46;;;;;;;4.30;3.90;;;22.90;60.20;;;;;;5014187;28;20434;-70
2022/08/02 08:06:13;;;;;;;4.40;4.10;;;23.00;59.70;;;;;;5007846;28;20814;-70
2022/08/02 08:08:42;;;;;;;4.20;3.60;;;23.00;59.70;;;;;;5005088;28;20437;-71
2022/08/02 08:11:10;;;;;;;4.30;3.72;;;23.00;59.60;;;;;;5014671;28;20450;-68
2022/08/02 08:13:36;;;;;;;3.87;3.47;;;23.00;59.30;;;;;;5002881;28;20435;-70
2022/08/02 08:16:04;;;;;;;3.35;3.00;;;23.20;58.20;;;;;;5010264;28;20924;-69
2022/08/02 08:18:31;;;;;;;4.00;3.30;;;23.40;58.10;;;;;;5016336;28;20435;-69
2022/08/02 08:20:57;;;;;;;3.30;3.00;;;23.70;56.30;;;;;;5017327;28;20439;-67
2022/08/02 08:23:24;;;;;;;5.15;3.10;;;23.90;56.10;;;;;;5008271;28;20439;-74
2022/08/02 08:25:52;;;;;;;3.38;3.05;;;24.00;55.20;;;;;;5029164;22;20458;-69
2022/08/02 08:28:19;;;;;;;4.13;3.20;;;24.20;55.00;;;;;;4999733;28;20436;-69
2022/08/02 08:30:47;;;;;;;3.60;2.67;;;24.30;54.60;;;;;;5001992;28;20438;-74
2022/08/02 08:33:14;;;;;;;3.27;3.07;;;24.50;54.40;;;;;;5004642;28;20505;-75
2022/08/02 08:35:41;;;;;;;3.63;3.33;;;24.70;53.60;;;;;;5003899;28;20814;-74
2022/08/02 08:38:08;;;;;;;5.35;3.28;;;24.90;52.40;;;;;;4996403;28;20439;-74
2022/08/02 08:40:35;;;;;;;3.90;2.67;;;25.10;52.70;;;;;;4996311;28;20461;-74
2022/08/02 08:43:04;;;;;;;4.25;2.88;;;25.30;51.90;;;;;;4996379;28;20431;-74
2022/08/02 08:45:30;;;;;;;3.40;2.90;;;25.50;51.20;;;;;;4995070;28;20445;-74
2022/08/02 08:48:01;;;;;;;4.38;2.90;;;25.60;50.90;;;;;;5004672;28;20446;-74
2022/08/02 08:50:33;;;;;;;3.00;2.70;;;25.70;50.40;;;;;;5003873;28;20447;-74
2022/08/02 08:53:03;;;;;;;3.05;2.50;;;25.90;50.50;;;;;;4993246;28;20919;-73
2022/08/02 08:55:31;;;;;;;2.63;2.35;;;26.10;50.20;;;;;;5002841;28;21053;-73
2022/08/02 08:57:59;;;;;;;2.85;2.50;;;26.30;50.20;;;;;;4996211;28;20454;-73
2022/08/02 09:00:30;;;;;;;2.50;2.10;;;26.50;49.10;;;;;;5002364;28;20443;-73
2022/08/02 09:02:56;;;;;;;3.90;2.60;;;26.70;48.30;;;;;;5005007;28;20431;-73
2022/08/02 09:05:24;;;;;;;3.50;2.20;;;26.90;47.60;;;;;;4994896;28;20442;-73
2022/08/02 09:07:52;;;;;;;2.65;2.40;;;27.10;47.70;;;;;;5005011;28;20521;-73
2022/08/02 09:10:39;;;;;;;3.40;2.20;;;27.10;46.60;;;;;;5013917;28;20997;-72
2022/08/02 09:13:14;;;;;;;2.53;2.05;;;27.20;47.20;;;;;;5003095;28;20433;-72
2022/08/02 09:15:45;;;;;;;4.20;2.50;;;27.40;47.00;;;;;;4996853;28;20513;-72
2022/08/02 09:18:13;;;;;;;2.80;2.30;;;27.60;46.50;;;;;;4998208;28;20944;-72
2022/08/02 09:20:53;;;;;;;4.10;2.40;;;27.90;45.80;;;;;;4998224;28;20818;-71
2022/08/02 09:23:21;;;;;;;2.80;2.40;;;28.00;44.70;;;;;;4998082;28;20429;-71
2022/08/02 09:25:57;;;;;;;2.72;2.03;;;28.20;45.10;;;;;;4999933;28;20708;-71
2022/08/02 09:28:28;;;;;;;3.80;2.63;;;28.40;44.30;;;;;;4998802;28;20529;-73
2022/08/02 09:31:04;;;;;;;1.92;1.70;;;28.60;43.20;;;;;;5002814;28;20439;-73
2022/08/02 09:33:32;;;;;;;2.95;1.90;;;28.60;43.00;;;;;;5011532;28;20435;-73
2022/08/02 09:36:01;;;;;;;1.90;1.70;;;28.60;43.40;;;;;;5017623;28;20549;-74
2022/08/02 09:38:29;;;;;;;2.30;1.80;;;28.90;43.40;;;;;;4999594;28;20439;-73
2022/08/02 09:40:56;;;;;;;1.77;1.67;;;29.00;40.40;;;;;;4998832;28;20432;-73
2022/08/02 09:43:35;;;;;;;3.10;1.80;;;28.90;41.70;;;;;;4998358;28;20811;-71
2022/08/02 09:46:11;;;;;;;1.40;1.30;;;28.90;41.00;;;;;;4998389;28;20441;-72
2022/08/02 09:48:50;;;;;;;1.60;1.50;;;28.90;40.80;;;;;;4994166;28;20432;-71
2022/08/02 09:51:19;;;;;;;2.28;1.80;;;29.00;41.20;;;;;;4996641;28;20409;-72
2022/08/02 09:53:47;;;;;;;2.63;1.63;;;29.10;40.70;;;;;;4998077;28;20438;-72
2022/08/02 09:56:15;;;;;;;1.65;1.30;;;29.20;41.00;;;;;;5005670;28;20416;-71
2022/08/02 09:58:42;;;;;;;2.03;1.40;;;29.30;39.20;;;;;;4997560;28;20443;-74
2022/08/02 10:01:09;;;;;;;1.65;1.10;;;29.40;39.30;;;;;;4989634;28;20472;-67
2022/08/02 10:03:37;;;;;;;1.50;1.10;;;29.60;37.10;;;;;;4995528;28;20850;-68
2022/08/02 10:06:04;;;;;;;1.48;1.13;;;29.20;37.70;;;;;;5005515;28;21127;-69
2022/08/02 10:08:32;;;;;;;1.00;1.00;;;29.20;37.70;;;;;;5011126;28;20807;-69
2022/08/02 10:11:02;;;;;;;2.78;1.40;;;29.00;38.00;;;;;;4998588;28;20884;-67
2022/08/02 10:13:31;;;;;;;1.95;1.13;;;29.20;38.20;;;;;;5000078;28;20524;-70
2022/08/02 10:15:58;;;;;;;2.03;1.27;;;29.40;37.80;;;;;;5003533;28;20427;-68
2022/08/02 10:18:25;;;;;;;1.80;1.50;;;29.40;37.00;;;;;;5008011;28;20419;-67
2022/08/02 10:20:54;;;;;;;1.60;1.23;;;29.30;37.20;;;;;;5003972;28;20416;-68
2022/08/02 10:23:22;;;;;;;1.70;1.20;;;29.40;37.90;;;;;;5005279;28;20434;-68
2022/08/02 10:25:53;;;;;;;1.30;1.10;;;29.50;37.70;;;;;;5007192;28;20427;-68
2022/08/02 10:28:26;;;;;;;1.35;1.10;;;29.50;35.80;;;;;;4993839;28;20437;-69
2022/08/02 10:30:55;;;;;;;2.10;1.40;;;29.30;36.00;;;;;;5001589;28;20518;-68
2022/08/02 10:33:25;;;;;;;2.00;1.20;;;29.20;36.40;;;;;;4996130;28;20429;-68
2022/08/02 10:35:56;;;;;;;1.85;1.25;;;29.20;38.40;;;;;;4997112;28;20435;-68
2022/08/02 10:38:23;;;;;;;1.90;1.30;;;29.10;38.20;;;;;;4994879;28;20919;-68
2022/08/02 10:40:53;;;;;;;2.22;1.60;;;29.20;37.80;;;;;;4997553;28;20449;-69
2022/08/02 10:43:42;;;;;;;2.90;1.70;;;28.90;39.60;;;;;;5000135;28;21045;-70
2022/08/02 10:46:23;;;;;;;2.40;1.70;;;28.60;40.90;;;;;;4992192;28;20472;-70
2022/08/02 10:49:06;;;;;;;1.98;1.50;;;28.40;40.60;;;;;;4998399;28;20915;-71
2022/08/02 10:52:07;;;;;;;2.03;1.50;;;28.40;38.40;;;;;;4999064;28;20441;-70
2022/08/02 10:54:36;;;;;;;1.40;1.30;;;28.40;38.20;;;;;;5000857;28;21777;-70
2022/08/02 10:57:13;;;;;;;1.70;1.60;;;28.70;38.30;;;;;;4996622;28;20434;-70
2022/08/02 10:59:40;;;;;;;1.30;1.20;;;29.20;37.50;;;;;;5001501;28;20464;-69
2022/08/02 11:02:07;;;;;;;1.77;1.38;;;29.70;36.20;;;;;;5007689;28;20704;-71
2022/08/02 11:05:14;;;;;;;1.50;1.40;;;30.10;36.90;;;;;;5007567;28;20437;-70
2022/08/02 11:07:44;;;;;;;2.07;1.47;;;30.30;34.90;;;;;;5007113;28;20487;-69
2022/08/02 11:10:38;;;;;;;2.40;1.10;;;30.60;33.40;;;;;;4993751;28;20972;-71
2022/08/02 11:13:11;;;;;;;2.53;1.10;;;30.60;33.90;;;;;;4999413;28;20453;-72
2022/08/02 11:15:49;;;;;;;1.20;1.10;;;30.70;33.00;;;;;;5001918;28;20455;-71
2022/08/02 11:18:16;;;;;;;2.25;1.48;;;30.80;33.90;;;;;;5012942;28;20438;-71
2022/08/02 11:20:43;;;;;;;1.60;0.90;;;31.00;34.30;;;;;;5007003;28;20440;-71
2022/08/02 11:23:37;;;;;;;1.60;1.10;;;31.20;32.00;;;;;;5011217;28;20755;-70
2022/08/02 11:26:54;;;;;;;1.10;1.00;;;30.80;32.00;;;;;;5010420;28;21006;-70
2022/08/02 11:29:21;;;;;;;1.27;1.17;;;30.60;33.20;;;;;;4964320;28;20442;-70
2022/08/02 11:31:48;;;;;;;1.20;1.10;;;30.90;33.70;;;;;;4993448;28;20450;-70
2022/08/02 11:34:17;;;;;;;1.50;1.30;;;31.00;32.20;;;;;;5004489;28;20492;-70
2022/08/02 11:36:45;;;;;;;1.92;1.48;;;30.70;32.80;;;;;;5007505;28;20430;-69
2022/08/02 11:39:16;;;;;;;1.30;1.20;;;30.30;33.60;;;;;;4991598;28;20792;-70
2022/08/02 11:41:43;;;;;;;1.50;1.20;;;30.20;34.00;;;;;;5008263;28;20449;-71
2022/08/02 11:44:10;;;;;;;1.30;1.17;;;30.20;33.90;;;;;;4996599;28;20432;-71
2022/08/02 11:46:37;;;;;;;2.00;1.40;;;30.20;33.70;;;;;;5017381;28;20510;-71
2022/08/02 11:49:17;;;;;;;1.77;1.10;;;30.20;33.50;;;;;;5005584;28;20467;-70
2022/08/02 11:51:56;;;;;;;1.60;1.30;;;30.30;34.20;;;;;;5002957;28;20432;-70
2022/08/02 11:54:26;;;;;;;1.50;1.00;;;30.80;33.70;;;;;;4999100;28;20441;-70
2022/08/02 11:56:53;;;;;;;1.48;1.00;;;31.10;32.90;;;;;;5012959;28;20426;-70
2022/08/02 11:59:20;;;;;;;1.80;1.45;;;31.40;33.70;;;;;;5001306;28;20452;-69
2022/08/02 12:01:47;;;;;;;2.33;1.42;;;31.40;33.80;;;;;;5004165;28;20810;-70
2022/08/02 12:04:19;;;;;;;2.60;1.23;;;31.20;33.30;;;;;;4999744;28;20785;-70
2022/08/02 12:06:55;;;;;;;1.50;1.40;;;31.20;33.90;;;;;;5012977;28;20445;-71
2022/08/02 12:09:21;;;;;;;1.40;1.30;;;31.10;34.50;;;;;;4994278;28;20434;-70
2022/08/02 12:11:50;;;;;;;1.55;1.20;;;31.30;34.00;;;;;;5004191;28;20422;-70
2022/08/02 12:14:18;;;;;;;1.30;1.20;;;31.40;33.00;;;;;;5001588;28;20482;-71
2022/08/02 12:19:29;;;;;;;2.50;1.50;;;31.40;34.30;;;;;;5001050;28;20429;-71
2022/08/02 12:22:16;;;;;;;1.50;1.38;;;31.20;34.60;;;;;;5006462;28;20458;-70
2022/08/02 12:24:47;;;;;;;1.60;1.30;;;31.30;33.70;;;;;;4997316;28;20430;-70
2022/08/02 12:27:33;;;;;;;1.90;1.27;;;31.30;33.10;;;;;;4998371;28;20511;-70
2022/08/02 12:30:02;;;;;;;1.67;1.10;;;31.10;33.00;;;;;;5002686;28;21196;-71
2022/08/02 12:32:29;;;;;;;1.90;1.80;;;30.90;34.80;;;;;;5003337;28;20439;-71
2022/08/02 12:35:07;;;;;;;1.70;1.38;;;30.60;34.40;;;;;;5004961;28;20423;-71
2022/08/02 12:37:34;;;;;;;1.50;1.40;;;30.30;35.50;;;;;;4996605;28;20430;-71
2022/08/02 12:40:19;;;;;;;1.75;1.65;;;30.10;35.90;;;;;;5002211;28;20435;-71
2022/08/02 12:42:49;;;;;;;1.58;1.48;;;30.10;35.90;;;;;;5011048;28;20769;-71
2022/08/02 12:45:16;;;;;;;2.38;1.50;;;30.00;36.60;;;;;;5009123;28;20430;-72
2022/08/02 12:47:47;;;;;;;2.80;1.70;;;29.80;36.80;;;;;;4998870;28;20445;-71
2022/08/02 12:50:17;;;;;;;1.70;1.60;;;29.60;36.10;;;;;;5007556;28;20445;-71
2022/08/02 12:52:43;;;;;;;2.70;1.60;;;29.60;37.80;;;;;;5012141;28;20447;-71
2022/08/02 12:55:19;;;;;;;2.10;1.70;;;29.50;38.30;;;;;;4999079;28;20432;-68
2022/08/02 12:57:55;;;;;;;2.17;1.50;;;29.70;38.20;;;;;;5013711;28;20863;-67
2022/08/02 13:00:27;;;;;;;1.40;1.30;;;30.00;36.30;;;;;;5002989;28;20940;-67
2022/08/02 13:02:54;;;;;;;2.20;1.20;;;30.50;34.20;;;;;;5014721;28;20490;-68
2022/08/02 13:05:21;;;;;;;3.00;1.35;;;30.70;34.40;;;;;;5003758;28;20441;-68
2022/08/02 13:07:48;;;;;;;1.27;1.20;;;30.80;33.20;;;;;;5003875;28;20893;-71
2022/08/02 13:10:14;;;;;;;1.63;1.30;;;30.80;33.30;;;;;;5008410;28;20445;-71